| Date | Time | Temp. (oF) | Dew Point (oF) | Rel. Hum. (%) | Press. (in.) | Wind Dir. (deg.) | Wind Speed (mph) | Hourly Rainfall (i n.) |
|
|---|---|---|---|---|---|---|---|---|---|
| 1 | 09/16 | 24:00 | 70 | 64 | 84 | 30.11 | 350 | 2 | 0.00 |
| 2 | 09/15 | 23:00 | 70 | 65 | 85 | 30.14 | 360 | 0 | 0.00 |
| 3 | 09/15 | 22:00 | 69 | 64 | 86 | 30.17 | 330 | 4 | 0.00 |
| 4 | 09/15 | 21:00 | 69 | 65 | 88 | 30.18 | 290 | 7 | 0.01 |
| 5 | 09/15 | 20:00 | 70 | 66 | 88 | 30.17 | 310 | 1 | 0.03 |
| 6 | 09/15 | 19:00 | 70 | 66 | 89 | 30.18 | 50 | 0 | 0.08 |
| 7 | 09/15 | 18:00 | 70 | 66 | 88 | 30.19 | 50 | 1 | 0.05 |
| 8 | 09/15 | 17:00 | 71 | 67 | 89 | 30.19 | 10 | 0 | 0.14 |
| 9 | 09/15 | 16:00 | 71 | 66 | 87 | 30.20 | 20 | 2 | 0.06 |
| 10 | 09/15 | 15:00 | 70 | 66 | 88 | 30.20 | 20 | 2 | 0.10 |
| 11 | 09/15 | 14:00 | 71 | 66 | 86 | 30.23 | 130 | 0 | 0.01 |
| 12 | 09/15 | 13:00 | 71 | 66 | 87 | 30.24 | 150 | 0 | 0.23 |
| 13 | 09/15 | 12:00 | 74 | 67 | 80 | 30.26 | 130 | 0 | 0.01 |
| 14 | 09/15 | 11:00 | 74 | 67 | 79 | 30.26 | 130 | 1 | 0.00 |
| 15 | 09/15 | 10:00 | 74 | 67 | 79 | 30.26 | 130 | 0 | 0.00 |
| 16 | 09/15 | 09:00 | 74 | 65 | 76 | 30.26 | 130 | 1 | 0.00 |
| 17 | 09/15 | 08:00 | 74 | 66 | 78 | 30.26 | 130 | 0 | 0.00 |
| 18 | 09/15 | 07:00 | 70 | 65 | 86 | 30.26 | 130 | 0 | 0.00 |
| 19 | 09/15 | 06:00 | 70 | 65 | 86 | 30.25 | 130 | 0 | 0.00 |
| 20 | 09/15 | 05:00 | 71 | 65 | 83 | 30.24 | 130 | 0 | 0.00 |
| 21 | 09/15 | 04:00 | 70 | 64 | 83 | 30.25 | 130 | 0 | 0.00 |
| 22 | 09/15 | 03:00 | 70 | 65 | 85 | 30.26 | 130 | 0 | 0.00 |
| 23 | 09/15 | 02:00 | 70 | 64 | 84 | 30.27 | 130 | 0 | 0.00 |
| 24 | 09/15 | 01:00 | 70 | 64 | 82 | 30.27 | 130 | 0 | 0.00 |